Time;durP1;ratioP1;P1;durP2;ratioP2;P2;SDS_P1;SDS_P2;PMS_P1;PMS_P2;Temp;Humidity;BMP_temperature;BMP_pressure;BME280_temperature;BME280_humidity;BME280_pressure;Samples;Min_cycle;Max_cycle;Signal;HPM_P1;HPM_P2
2021/12/01 00:02:10;;;;;;;43.25;21.50;;;;;;;;;;5052859;28;20609;-66
2021/12/01 00:04:36;;;;;;;45.85;23.10;;;;;;;;;;5053188;28;20091;-66
2021/12/01 00:07:03;;;;;;;46.45;22.65;;;;;;;;;;5052873;28;20037;-66
2021/12/01 00:09:29;;;;;;;45.15;22.98;;;;;;;;;;5052348;28;20076;-66
2021/12/01 00:11:55;;;;;;;42.63;21.77;;;;;;;;;;5053352;28;20033;-66
2021/12/01 00:14:21;;;;;;;44.13;22.35;;;;;;;;;;5053328;28;20039;-66
2021/12/01 00:16:47;;;;;;;47.75;23.80;;;;;;;;;;5052305;28;20456;-66
2021/12/01 00:19:13;;;;;;;40.50;21.80;;;;;;;;;;5052989;28;20083;-66
2021/12/01 00:21:39;;;;;;;42.55;21.42;;;;;;;;;;5052795;28;20052;-66
2021/12/01 00:24:05;;;;;;;47.13;22.73;;;;;;;;;;5052473;28;20041;-66
2021/12/01 00:26:31;;;;;;;39.20;19.80;;;;;;;;;;5052831;28;20112;-66
2021/12/01 00:28:57;;;;;;;39.50;20.42;;;;;;;;;;5052447;28;20032;-66
2021/12/01 00:31:23;;;;;;;35.90;18.83;;;;;;;;;;5052529;28;20436;-66
2021/12/01 00:33:49;;;;;;;40.10;20.40;;;;;;;;;;5052479;28;20684;-66
2021/12/01 00:36:16;;;;;;;37.13;20.15;;;;;;;;;;5052680;28;20037;-66
2021/12/01 00:38:43;;;;;;;35.80;20.52;;;;;;;;;;5052132;28;20049;-66
2021/12/01 00:41:10;;;;;;;32.55;20.23;;;;;;;;;;5052954;28;20045;-66
2021/12/01 00:43:39;;;;;;;34.47;19.08;;;;;;;;;;5053049;28;20041;-66
2021/12/01 00:46:35;;;;;;;35.28;19.50;;;;;;;;;;5052377;28;20053;-66
2021/12/01 00:49:02;;;;;;;35.83;19.00;;;;;;;;;;5034242;28;20045;-66
2021/12/01 00:51:28;;;;;;;36.83;20.15;;;;;;;;;;5052495;28;20456;-66
2021/12/01 00:53:54;;;;;;;33.92;18.63;;;;;;;;;;5052153;28;20052;-66
2021/12/01 00:56:21;;;;;;;33.63;18.00;;;;;;;;;;5052642;28;20475;-66
2021/12/01 00:58:47;;;;;;;32.85;17.95;;;;;;;;;;5051654;28;20116;-66
2021/12/01 01:01:13;;;;;;;32.38;16.80;;;;;;;;;;5052372;28;20719;-66
2021/12/01 01:03:39;;;;;;;31.33;18.00;;;;;;;;;;5052437;28;20036;-66
2021/12/01 01:06:05;;;;;;;31.67;18.25;;;;;;;;;;5052052;28;20071;-66
2021/12/01 01:08:32;;;;;;;34.95;17.63;;;;;;;;;;5051929;28;20155;-66
2021/12/01 01:16:22;;;;;;;32.13;16.15;;;;;;;;;;5051979;28;20053;-66
2021/12/01 01:18:52;;;;;;;30.35;16.27;;;;;;;;;;5051895;28;20387;-66
2021/12/01 01:21:18;;;;;;;31.90;17.38;;;;;;;;;;5052616;28;20045;-66
2021/12/01 01:23:45;;;;;;;30.20;16.92;;;;;;;;;;5054985;28;20061;-66
2021/12/01 01:26:17;;;;;;;27.73;14.63;;;;;;;;;;5056114;28;20076;-66
2021/12/01 01:28:43;;;;;;;23.40;13.77;;;;;;;;;;5055854;28;20043;-66
2021/12/01 01:31:09;;;;;;;24.80;12.30;;;;;;;;;;5055623;28;20068;-66
2021/12/01 01:33:36;;;;;;;24.17;13.25;;;;;;;;;;5056361;28;20037;-66
2021/12/01 01:36:02;;;;;;;21.88;11.48;;;;;;;;;;5055427;28;20045;-66
2021/12/01 01:38:31;;;;;;;19.38;11.57;;;;;;;;;;5055001;28;20080;-66
2021/12/01 01:40:57;;;;;;;18.85;10.80;;;;;;;;;;5037377;28;20115;-66
2021/12/01 01:43:23;;;;;;;20.45;10.48;;;;;;;;;;5055550;28;20040;-66
2021/12/01 01:45:53;;;;;;;18.92;10.27;;;;;;;;;;5055407;28;20186;-66
2021/12/01 01:48:29;;;;;;;19.40;10.20;;;;;;;;;;5055885;28;20045;-66
2021/12/01 01:50:55;;;;;;;22.73;10.50;;;;;;;;;;5055505;28;20049;-66
2021/12/01 01:53:24;;;;;;;17.05;9.35;;;;;;;;;;5055219;28;20040;-66
2021/12/01 01:55:53;;;;;;;13.90;8.25;;;;;;;;;;5055608;28;20044;-66
2021/12/01 01:58:21;;;;;;;13.35;7.68;;;;;;;;;;5055155;28;20044;-66
2021/12/01 02:01:03;;;;;;;13.63;7.97;;;;;;;;;;5054381;28;20037;-66
2021/12/01 02:03:29;;;;;;;12.77;7.35;;;;;;;;;;5055664;28;20160;-66
2021/12/01 02:05:56;;;;;;;14.70;7.90;;;;;;;;;;5055229;28;20037;-66
2021/12/01 02:08:30;;;;;;;11.20;6.93;;;;;;;;;;5054700;28;20352;-66
2021/12/01 02:10:57;;;;;;;10.85;6.30;;;;;;;;;;5054692;28;20088;-66
2021/12/01 02:13:24;;;;;;;10.27;6.57;;;;;;;;;;5054331;28;20128;-66
2021/12/01 02:15:51;;;;;;;11.95;5.13;;;;;;;;;;5053966;28;20048;-66
2021/12/01 02:18:17;;;;;;;8.60;5.70;;;;;;;;;;5054171;28;20103;-66
2021/12/01 02:20:58;;;;;;;7.80;5.38;;;;;;;;;;5054054;28;20037;-66
2021/12/01 02:23:26;;;;;;;10.48;5.35;;;;;;;;;;5053506;28;20057;-66
2021/12/01 02:25:52;;;;;;;7.53;5.38;;;;;;;;;;5054063;28;20482;-66
2021/12/01 02:28:18;;;;;;;8.75;5.45;;;;;;;;;;5054034;28;20033;-66
2021/12/01 02:30:44;;;;;;;8.35;5.00;;;;;;;;;;5053052;28;20045;-66
2021/12/01 02:33:10;;;;;;;9.07;5.50;;;;;;;;;;5053924;28;20094;-66
2021/12/01 02:35:36;;;;;;;8.75;4.93;;;;;;;;;;5054150;28;20032;-66
2021/12/01 02:38:04;;;;;;;8.10;4.75;;;;;;;;;;5053890;28;20047;-66
2021/12/01 02:40:30;;;;;;;8.27;4.80;;;;;;;;;;5054297;28;20037;-66
2021/12/01 02:42:56;;;;;;;8.90;5.20;;;;;;;;;;5054058;28;20144;-66
2021/12/01 02:45:22;;;;;;;10.75;6.05;;;;;;;;;;5053553;28;20124;-66
2021/12/01 02:47:49;;;;;;;8.57;5.05;;;;;;;;;;5054171;28;20125;-66
2021/12/01 02:50:15;;;;;;;8.27;5.22;;;;;;;;;;5053996;28;20090;-66
2021/12/01 02:52:41;;;;;;;9.23;5.22;;;;;;;;;;5053751;28;20534;-66
2021/12/01 02:55:09;;;;;;;7.50;4.72;;;;;;;;;;5053887;28;20049;-66
2021/12/01 02:57:49;;;;;;;7.03;4.57;;;;;;;;;;5053804;28;20045;-66
2021/12/01 03:00:17;;;;;;;7.55;4.47;;;;;;;;;;5052849;28;20041;-66
2021/12/01 03:02:43;;;;;;;7.40;4.55;;;;;;;;;;5053624;28;20143;-66
2021/12/01 03:05:09;;;;;;;7.28;4.80;;;;;;;;;;5053754;28;20047;-66
2021/12/01 03:07:36;;;;;;;6.53;4.78;;;;;;;;;;5053452;28;20060;-66
2021/12/01 03:10:03;;;;;;;7.57;4.32;;;;;;;;;;5053495;28;20038;-66
2021/12/01 03:12:29;;;;;;;7.50;4.15;;;;;;;;;;5053725;28;20064;-66
2021/12/01 03:14:56;;;;;;;4.93;3.53;;;;;;;;;;5053026;28;20037;-66
2021/12/01 03:17:22;;;;;;;6.60;3.20;;;;;;;;;;5053349;28;20088;-66
2021/12/01 03:19:48;;;;;;;7.82;3.10;;;;;;;;;;5053421;28;20038;-66
2021/12/01 03:22:15;;;;;;;6.97;3.35;;;;;;;;;;5052588;28;20053;-66
2021/12/01 03:24:41;;;;;;;7.40;3.20;;;;;;;;;;5052683;28;20094;-66
2021/12/01 03:27:07;;;;;;;9.68;2.63;;;;;;;;;;5052880;28;20116;-66
2021/12/01 03:29:33;;;;;;;5.50;2.45;;;;;;;;;;5052759;28;20041;-66
2021/12/01 03:31:59;;;;;;;15.23;2.92;;;;;;;;;;5052644;28;20094;-66
2021/12/01 03:34:25;;;;;;;9.85;2.22;;;;;;;;;;5052946;28;20128;-67
2021/12/01 03:36:51;;;;;;;13.50;2.40;;;;;;;;;;5052326;28;20045;-66
2021/12/01 03:39:17;;;;;;;11.95;2.28;;;;;;;;;;5052441;28;20072;-66
2021/12/01 03:41:43;;;;;;;4.57;1.67;;;;;;;;;;5052353;28;20037;-66
2021/12/01 03:44:09;;;;;;;7.28;2.60;;;;;;;;;;5051736;28;20120;-66
2021/12/01 03:46:35;;;;;;;8.82;2.35;;;;;;;;;;5052071;28;20060;-66
2021/12/01 03:49:02;;;;;;;7.40;2.53;;;;;;;;;;5052418;28;20037;-66
2021/12/01 03:51:28;;;;;;;8.43;2.47;;;;;;;;;;5051994;28;20119;-66
2021/12/01 03:53:54;;;;;;;7.43;2.33;;;;;;;;;;5052716;28;20475;-66
2021/12/01 03:56:21;;;;;;;7.85;2.47;;;;;;;;;;5052388;28;20040;-66
2021/12/01 03:58:47;;;;;;;8.52;3.08;;;;;;;;;;5051816;28;20487;-66
2021/12/01 04:01:14;;;;;;;5.50;3.00;;;;;;;;;;5052037;28;20049;-66
2021/12/01 04:03:40;;;;;;;10.50;3.20;;;;;;;;;;5052344;28;20049;-66
2021/12/01 04:06:06;;;;;;;5.72;3.42;;;;;;;;;;5051763;28;20443;-66
2021/12/01 04:08:32;;;;;;;5.85;2.75;;;;;;;;;;5052287;28;20036;-67
2021/12/01 04:10:58;;;;;;;4.38;2.72;;;;;;;;;;5051856;28;20734;-66
2021/12/01 04:13:24;;;;;;;7.50;3.10;;;;;;;;;;5051846;28;20045;-66
2021/12/01 04:15:50;;;;;;;6.05;2.67;;;;;;;;;;5051839;28;20511;-66
2021/12/01 04:18:17;;;;;;;4.75;2.50;;;;;;;;;;5051874;28;20068;-66
2021/12/01 04:20:43;;;;;;;5.60;2.92;;;;;;;;;;5051142;28;20091;-66
2021/12/01 04:23:09;;;;;;;7.55;2.63;;;;;;;;;;5051263;28;20092;-66
2021/12/01 04:25:35;;;;;;;5.05;3.45;;;;;;;;;;5051717;28;20091;-66
2021/12/01 04:28:02;;;;;;;3.78;2.70;;;;;;;;;;5051435;28;20040;-67
2021/12/01 04:30:28;;;;;;;4.40;2.92;;;;;;;;;;5052134;28;20052;-66
2021/12/01 04:32:54;;;;;;;4.45;2.88;;;;;;;;;;5051243;28;20048;-66
2021/12/01 04:35:23;;;;;;;4.38;2.58;;;;;;;;;;5051640;28;20124;-66
2021/12/01 04:37:50;;;;;;;5.68;2.55;;;;;;;;;;5051771;28;20106;-66
2021/12/01 04:40:17;;;;;;;4.10;2.53;;;;;;;;;;5051768;28;20460;-66
2021/12/01 04:42:43;;;;;;;3.88;2.75;;;;;;;;;;5050500;28;20045;-66
2021/12/01 04:45:14;;;;;;;2.95;1.85;;;;;;;;;;5051382;28;20045;-66
2021/12/01 04:47:45;;;;;;;2.90;2.35;;;;;;;;;;5051419;28;20404;-66
2021/12/01 04:50:12;;;;;;;2.78;1.80;;;;;;;;;;5051301;28;20040;-66
2021/12/01 04:52:39;;;;;;;3.13;2.50;;;;;;;;;;5050798;28;20039;-66
2021/12/01 04:55:05;;;;;;;3.28;1.92;;;;;;;;;;5050933;28;20593;-67
2021/12/01 04:57:31;;;;;;;2.47;2.00;;;;;;;;;;5050776;28;20075;-67
2021/12/01 04:59:58;;;;;;;2.40;2.10;;;;;;;;;;5051573;28;20380;-67
2021/12/01 05:02:24;;;;;;;3.08;1.90;;;;;;;;;;5051082;28;20187;-67
2021/12/01 05:04:50;;;;;;;2.17;1.77;;;;;;;;;;5050945;28;20115;-67
2021/12/01 05:07:17;;;;;;;2.78;1.77;;;;;;;;;;5051338;28;20572;-67
2021/12/01 05:09:43;;;;;;;3.53;2.00;;;;;;;;;;5051436;28;20059;-67
2021/12/01 05:12:09;;;;;;;3.72;1.98;;;;;;;;;;5050920;28;20460;-67
2021/12/01 05:14:36;;;;;;;2.85;2.08;;;;;;;;;;5050934;28;20037;-67
2021/12/01 05:17:02;;;;;;;4.53;1.98;;;;;;;;;;5051332;28;20375;-67
2021/12/01 05:19:28;;;;;;;2.85;2.10;;;;;;;;;;5051425;28;20391;-67
2021/12/01 05:21:55;;;;;;;3.17;2.08;;;;;;;;;;5050384;28;20183;-67
2021/12/01 05:24:21;;;;;;;2.38;2.05;;;;;;;;;;5051116;28;20053;-67
2021/12/01 05:26:47;;;;;;;3.95;2.63;;;;;;;;;;5050705;28;20048;-67
2021/12/01 05:29:16;;;;;;;2.80;2.50;;;;;;;;;;5050820;28;20064;-67
2021/12/01 05:31:42;;;;;;;3.70;2.72;;;;;;;;;;5051137;28;20041;-67
2021/12/01 05:34:08;;;;;;;3.90;2.88;;;;;;;;;;5051086;28;20037;-67
2021/12/01 05:36:35;;;;;;;4.40;3.15;;;;;;;;;;5050686;28;20471;-67
2021/12/01 05:39:02;;;;;;;3.67;2.97;;;;;;;;;;5051229;28;20524;-67
2021/12/01 05:41:28;;;;;;;3.33;3.00;;;;;;;;;;5051230;28;20098;-67
2021/12/01 05:43:54;;;;;;;3.45;2.83;;;;;;;;;;5050135;28;20037;-67
2021/12/01 05:46:20;;;;;;;2.72;2.53;;;;;;;;;;5051013;28;20286;-67
2021/12/01 05:48:46;;;;;;;3.25;2.72;;;;;;;;;;5050860;28;20472;-67
2021/12/01 05:51:12;;;;;;;3.97;2.90;;;;;;;;;;5050679;28;20033;-67
2021/12/01 05:53:38;;;;;;;3.63;3.00;;;;;;;;;;5050706;28;20124;-67
2021/12/01 05:56:04;;;;;;;3.38;3.05;;;;;;;;;;5050979;28;20590;-67
2021/12/01 05:58:30;;;;;;;4.78;3.35;;;;;;;;;;5050428;28;20115;-67
2021/12/01 06:00:56;;;;;;;3.47;2.60;;;;;;;;;;5050623;28;20048;-67
2021/12/01 06:03:22;;;;;;;2.88;2.58;;;;;;;;;;5050629;28;20045;-67
2021/12/01 06:05:49;;;;;;;3.63;3.08;;;;;;;;;;5050492;28;20471;-67
2021/12/01 06:08:15;;;;;;;4.15;2.40;;;;;;;;;;5053261;28;20037;-67
2021/12/01 06:10:41;;;;;;;2.20;2.00;;;;;;;;;;5054419;28;20037;-67
2021/12/01 06:13:08;;;;;;;2.25;2.05;;;;;;;;;;5053694;28;20082;-67
2021/12/01 06:15:34;;;;;;;3.38;1.40;;;;;;;;;;5054248;28;20052;-67
2021/12/01 06:18:00;;;;;;;1.98;1.80;;;;;;;;;;5054192;28;20045;-67
2021/12/01 06:20:27;;;;;;;2.17;1.98;;;;;;;;;;5054028;28;20498;-67
2021/12/01 06:22:53;;;;;;;3.17;2.00;;;;;;;;;;5052233;28;20092;-67
2021/12/01 06:25:19;;;;;;;1.63;1.27;;;;;;;;;;5053957;28;20045;-67
2021/12/01 06:27:45;;;;;;;2.38;1.80;;;;;;;;;;5053694;28;20041;-67
2021/12/01 06:30:12;;;;;;;2.00;1.48;;;;;;;;;;5054049;28;20119;-67
2021/12/01 06:32:38;;;;;;;1.63;1.45;;;;;;;;;;5054034;28;20116;-67
2021/12/01 06:35:04;;;;;;;2.95;1.40;;;;;;;;;;5053411;28;20033;-67
2021/12/01 06:37:30;;;;;;;2.42;1.80;;;;;;;;;;5054032;28;20036;-67
2021/12/01 06:39:57;;;;;;;1.30;1.20;;;;;;;;;;5053793;28;20041;-67
2021/12/01 06:42:22;;;;;;;1.40;1.08;;;;;;;;;;5053394;28;20037;-67
2021/12/01 06:44:49;;;;;;;1.33;1.20;;;;;;;;;;5053318;28;20521;-66
2021/12/01 06:47:16;;;;;;;3.50;1.50;;;;;;;;;;5052692;28;20040;-66
2021/12/01 06:49:45;;;;;;;1.73;1.50;;;;;;;;;;5052971;28;20052;-66
2021/12/01 06:52:12;;;;;;;1.70;1.60;;;;;;;;;;5035038;28;20052;-66
2021/12/01 06:54:39;;;;;;;2.38;1.55;;;;;;;;;;5052673;28;20033;-66
2021/12/01 06:57:05;;;;;;;2.47;1.80;;;;;;;;;;5052904;28;20041;-66
2021/12/01 06:59:31;;;;;;;1.85;1.50;;;;;;;;;;5052700;28;20122;-66
2021/12/01 07:01:57;;;;;;;1.48;1.38;;;;;;;;;;5053198;28;20052;-66
2021/12/01 07:04:24;;;;;;;1.70;1.42;;;;;;;;;;5052250;28;20052;-67
2021/12/01 07:06:50;;;;;;;1.70;1.20;;;;;;;;;;5052700;28;20055;-67
2021/12/01 07:09:21;;;;;;;1.40;1.15;;;;;;;;;;5053616;28;20427;-66
2021/12/01 07:11:47;;;;;;;2.25;1.58;;;;;;;;;;5052455;28;20041;-66
2021/12/01 07:14:13;;;;;;;2.33;1.33;;;;;;;;;;5052968;28;20048;-66
2021/12/01 07:16:39;;;;;;;1.55;1.45;;;;;;;;;;5052746;28;20049;-66
2021/12/01 07:19:06;;;;;;;2.13;1.77;;;;;;;;;;5051529;28;20079;-66
2021/12/01 07:21:32;;;;;;;1.60;1.50;;;;;;;;;;5052821;28;20052;-66
2021/12/01 07:23:58;;;;;;;2.30;2.00;;;;;;;;;;5052765;28;20107;-66
2021/12/01 07:26:24;;;;;;;2.90;1.83;;;;;;;;;;5052175;28;20068;-66
2021/12/01 07:28:50;;;;;;;2.45;1.70;;;;;;;;;;5052044;28;20491;-66
2021/12/01 07:31:17;;;;;;;2.30;1.77;;;;;;;;;;5043517;28;20036;-66
2021/12/01 07:33:43;;;;;;;2.42;2.22;;;;;;;;;;5048533;28;20045;-67
2021/12/01 07:36:09;;;;;;;3.22;2.78;;;;;;;;;;5052392;28;20367;-67
2021/12/01 07:38:35;;;;;;;4.03;2.40;;;;;;;;;;5052806;28;20455;-67
2021/12/01 07:41:01;;;;;;;3.75;2.42;;;;;;;;;;5052414;28;20049;-67
2021/12/01 07:43:27;;;;;;;3.63;2.83;;;;;;;;;;5052751;28;20090;-67
2021/12/01 07:45:54;;;;;;;3.25;2.65;;;;;;;;;;5052686;28;20045;-67
2021/12/01 07:48:20;;;;;;;4.32;2.75;;;;;;;;;;5033714;28;20041;-67
2021/12/01 07:50:47;;;;;;;3.92;3.25;;;;;;;;;;5052397;28;20037;-67
2021/12/01 07:53:13;;;;;;;5.07;3.42;;;;;;;;;;5052205;28;20143;-67
2021/12/01 07:55:39;;;;;;;3.53;3.13;;;;;;;;;;5051395;28;20056;-67
2021/12/01 07:58:05;;;;;;;5.40;3.85;;;;;;;;;;5052699;28;20045;-67
2021/12/01 08:00:31;;;;;;;5.05;3.55;;;;;;;;;;5051856;28;20068;-67
2021/12/01 08:02:57;;;;;;;4.05;2.63;;;;;;;;;;5051815;28;20063;-67
2021/12/01 08:05:24;;;;;;;4.28;3.15;;;;;;;;;;5052129;28;20049;-67
2021/12/01 08:07:51;;;;;;;4.28;3.55;;;;;;;;;;5052490;28;20037;-67
2021/12/01 08:10:17;;;;;;;4.45;3.40;;;;;;;;;;5051762;28;20103;-67
2021/12/01 08:12:43;;;;;;;7.65;3.65;;;;;;;;;;5050185;28;20033;-67
2021/12/01 08:15:09;;;;;;;4.75;3.67;;;;;;;;;;5051438;28;20066;-67
2021/12/01 08:17:36;;;;;;;5.55;2.97;;;;;;;;;;5051151;28;20037;-67
2021/12/01 08:20:03;;;;;;;5.57;3.63;;;;;;;;;;5051659;28;20045;-67
2021/12/01 08:22:29;;;;;;;4.78;3.95;;;;;;;;;;5024849;28;20060;-67
2021/12/01 08:24:59;;;;;;;6.50;3.88;;;;;;;;;;5031412;28;20124;-67
2021/12/01 08:27:26;;;;;;;7.30;4.00;;;;;;;;;;5031083;28;20045;-67
2021/12/01 08:29:52;;;;;;;5.38;3.88;;;;;;;;;;5031786;28;20037;-67
2021/12/01 08:32:18;;;;;;;5.53;3.55;;;;;;;;;;5031412;28;20043;-67
2021/12/01 08:34:49;;;;;;;7.10;3.90;;;;;;;;;;5031798;28;20037;-67
2021/12/01 08:37:18;;;;;;;7.95;4.07;;;;;;;;;;5013976;28;20064;-67
2021/12/01 08:39:45;;;;;;;6.35;3.53;;;;;;;;;;5031025;28;20112;-67
2021/12/01 08:42:12;;;;;;;5.45;3.60;;;;;;;;;;5031832;28;20041;-67
2021/12/01 08:44:45;;;;;;;4.50;3.47;;;;;;;;;;5029026;28;20043;-67
2021/12/01 08:47:11;;;;;;;6.95;3.42;;;;;;;;;;5029986;28;20639;-68
2021/12/01 08:49:37;;;;;;;5.28;3.08;;;;;;;;;;5031381;28;20484;-67
2021/12/01 08:52:03;;;;;;;6.65;2.78;;;;;;;;;;5032510;28;20061;-68
2021/12/01 08:54:29;;;;;;;9.02;2.00;;;;;;;;;;5030947;28;20036;-67
2021/12/01 08:56:57;;;;;;;11.80;3.17;;;;;;;;;;5028929;28;20500;-68
2021/12/01 08:59:23;;;;;;;8.70;2.22;;;;;;;;;;5013421;28;20088;-68
2021/12/01 09:01:49;;;;;;;9.40;2.08;;;;;;;;;;5030925;28;20049;-68
2021/12/01 09:04:15;;;;;;;11.27;2.13;;;;;;;;;;5030328;28;20037;-67
2021/12/01 09:06:41;;;;;;;8.82;2.10;;;;;;;;;;5028998;28;20041;-69
2021/12/01 09:09:08;;;;;;;10.40;2.30;;;;;;;;;;5020433;28;20607;-68
2021/12/01 09:11:34;;;;;;;12.57;2.15;;;;;;;;;;5029350;28;20033;-69
2021/12/01 09:14:01;;;;;;;11.52;2.00;;;;;;;;;;5030284;28;20403;-68
2021/12/01 09:16:28;;;;;;;9.77;1.92;;;;;;;;;;5027961;28;20623;-68
2021/12/01 09:18:54;;;;;;;8.75;2.20;;;;;;;;;;5029615;28;20057;-68
2021/12/01 09:21:21;;;;;;;9.32;1.75;;;;;;;;;;5030733;28;20041;-68
2021/12/01 09:23:47;;;;;;;8.45;2.25;;;;;;;;;;5055653;28;20052;-68
2021/12/01 09:26:13;;;;;;;8.88;1.55;;;;;;;;;;5055884;28;20037;-68
2021/12/01 09:28:39;;;;;;;8.45;1.52;;;;;;;;;;5050255;28;20033;-68
2021/12/01 09:31:05;;;;;;;6.32;1.30;;;;;;;;;;5050149;28;20082;-68
2021/12/01 09:33:32;;;;;;;9.70;1.75;;;;;;;;;;5050678;28;20048;-68
2021/12/01 09:35:58;;;;;;;9.93;1.42;;;;;;;;;;5050209;28;20122;-68
2021/12/01 09:38:24;;;;;;;8.90;1.35;;;;;;;;;;5050293;28;20091;-68
2021/12/01 09:40:53;;;;;;;6.95;1.23;;;;;;;;;;5050024;28;20041;-68
2021/12/01 09:43:21;;;;;;;9.05;1.20;;;;;;;;;;5053543;28;20048;-68
2021/12/01 09:45:48;;;;;;;15.65;2.95;;;;;;;;;;5052097;28;20387;-69
2021/12/01 09:48:14;;;;;;;7.60;1.20;;;;;;;;;;5052106;28;20037;-69
2021/12/01 09:50:40;;;;;;;11.00;1.30;;;;;;;;;;5054418;28;20037;-69
2021/12/01 09:53:06;;;;;;;10.50;1.35;;;;;;;;;;5053816;28;20048;-68
2021/12/01 09:55:32;;;;;;;12.20;1.65;;;;;;;;;;5039638;28;20045;-67
2021/12/01 09:57:58;;;;;;;6.05;1.15;;;;;;;;;;5049693;28;20163;-67
2021/12/01 10:00:26;;;;;;;8.70;1.20;;;;;;;;;;5052260;28;20045;-67
2021/12/01 10:02:52;;;;;;;7.90;1.17;;;;;;;;;;5052847;28;20387;-68
2021/12/01 10:05:36;;;;;;;8.68;1.13;;;;;;;;;;5052879;28;20041;-68
2021/12/01 10:08:03;;;;;;;11.85;1.20;;;;;;;;;;5045633;28;20045;-67
2021/12/01 10:10:35;;;;;;;8.88;1.45;;;;;;;;;;5051910;28;20044;-67
2021/12/01 10:13:01;;;;;;;10.77;1.42;;;;;;;;;;5053063;28;20045;-67
2021/12/01 10:15:29;;;;;;;13.68;1.70;;;;;;;;;;5053765;28;20068;-66
2021/12/01 10:18:08;;;;;;;7.68;1.00;;;;;;;;;;5053385;28;20106;-67
2021/12/01 10:20:34;;;;;;;7.35;1.50;;;;;;;;;;5052384;28;20115;-67
2021/12/01 10:23:07;;;;;;;13.52;1.42;;;;;;;;;;5030604;28;20061;-67
2021/12/01 10:25:33;;;;;;;;;;;;;;;;;;5048038;28;20053;-67
2021/12/01 10:27:59;;;;;;;12.48;1.65;;;;;;;;;;5049625;28;19917;-67
2021/12/01 10:30:45;;;;;;;8.02;1.33;;;;;;;;;;5052743;28;20116;-67
2021/12/01 10:33:11;;;;;;;12.55;1.92;;;;;;;;;;5053087;28;20037;-67
2021/12/01 10:35:38;;;;;;;13.82;1.40;;;;;;;;;;5053555;28;20041;-67
2021/12/01 10:38:06;;;;;;;8.98;1.13;;;;;;;;;;5052715;28;20049;-67
2021/12/01 10:40:32;;;;;;;12.13;1.60;;;;;;;;;;5053103;28;20041;-67
2021/12/01 10:43:00;;;;;;;10.45;1.48;;;;;;;;;;5035422;28;20127;-67
2021/12/01 10:45:34;;;;;;;12.45;1.42;;;;;;;;;;5053473;28;20488;-67
2021/12/01 10:48:02;;;;;;;15.50;2.00;;;;;;;;;;5053436;28;20103;-67
2021/12/01 10:50:30;;;;;;;10.55;1.70;;;;;;;;;;5035483;28;20069;-67
2021/12/01 10:53:02;;;;;;;12.68;1.70;;;;;;;;;;5049311;28;20122;-67
2021/12/01 10:55:28;;;;;;;16.30;2.45;;;;;;;;;;5052997;28;20044;-67
2021/12/01 10:57:57;;;;;;;14.23;2.10;;;;;;;;;;5053443;28;20520;-67
2021/12/01 11:00:49;;;;;;;12.48;1.60;;;;;;;;;;5052136;28;20651;-66
2021/12/01 11:03:20;;;;;;;11.80;1.45;;;;;;;;;;5047786;28;20059;-67
2021/12/01 11:05:48;;;;;;;11.77;1.60;;;;;;;;;;5038403;28;20041;-67
2021/12/01 11:08:20;;;;;;;8.27;1.10;;;;;;;;;;5042096;28;20427;-67
2021/12/01 11:10:51;;;;;;;12.75;1.55;;;;;;;;;;5052825;28;20045;-67
2021/12/01 11:13:19;;;;;;;15.73;1.93;;;;;;;;;;5052847;28;20123;-67
2021/12/01 11:15:46;;;;;;;10.55;1.95;;;;;;;;;;5052329;28;20314;-67
2021/12/01 11:18:22;;;;;;;11.32;2.20;;;;;;;;;;5052545;28;20479;-67
2021/12/01 11:20:50;;;;;;;13.73;1.52;;;;;;;;;;5052531;28;20044;-67
2021/12/01 11:23:23;;;;;;;17.50;2.00;;;;;;;;;;5051925;28;20212;-67
2021/12/01 11:25:54;;;;;;;18.73;2.05;;;;;;;;;;5033675;28;20042;-67
2021/12/01 11:28:22;;;;;;;15.18;2.00;;;;;;;;;;5043614;28;20044;-67
2021/12/01 11:30:51;;;;;;;19.92;2.40;;;;;;;;;;5052348;28;20036;-67
2021/12/01 11:33:19;;;;;;;11.60;2.13;;;;;;;;;;5052606;28;20118;-67
2021/12/01 11:35:47;;;;;;;10.27;2.42;;;;;;;;;;5052762;28;20048;-67
2021/12/01 11:38:14;;;;;;;16.92;2.28;;;;;;;;;;5034550;28;20052;-67
2021/12/01 11:40:41;;;;;;;16.23;2.90;;;;;;;;;;5052993;28;20228;-67
2021/12/01 11:43:09;;;;;;;16.80;2.53;;;;;;;;;;5052512;28;20395;-67
2021/12/01 11:45:39;;;;;;;17.20;2.65;;;;;;;;;;5014353;28;20050;-67
2021/12/01 11:48:08;;;;;;;20.13;2.88;;;;;;;;;;5039935;28;20045;-67
2021/12/01 11:50:36;;;;;;;17.05;2.47;;;;;;;;;;5051867;28;20183;-67
2021/12/01 11:53:02;;;;;;;14.30;2.05;;;;;;;;;;5052170;28;20041;-67
2021/12/01 11:55:52;;;;;;;20.52;3.15;;;;;;;;;;5034548;28;20502;-67
2021/12/01 11:58:53;;;;;;;19.27;2.50;;;;;;;;;;5052271;28;20119;-67
2021/12/01 12:01:22;;;;;;;19.70;2.50;;;;;;;;;;5002950;28;20038;-67
2021/12/01 12:03:48;;;;;;;21.40;4.60;;;;;;;;;;5044221;28;20404;-67
2021/12/01 12:06:20;;;;;;;25.13;2.75;;;;;;;;;;5051636;28;20041;-68
2021/12/01 12:08:55;;;;;;;15.43;2.33;;;;;;;;;;5051062;28;20086;-67
2021/12/01 12:11:41;;;;;;;17.17;2.17;;;;;;;;;;5051769;28;20575;-67
2021/12/01 12:14:25;;;;;;;16.02;2.42;;;;;;;;;;5033994;28;20040;-67
2021/12/01 12:17:02;;;;;;;12.45;1.90;;;;;;;;;;5051572;28;20049;-67
2021/12/01 12:19:49;;;;;;;13.95;2.22;;;;;;;;;;5051093;28;20480;-67
2021/12/01 12:22:16;;;;;;;15.57;2.75;;;;;;;;;;5050140;28;20057;-67
2021/12/01 12:24:45;;;;;;;16.90;3.28;;;;;;;;;;5046854;28;20073;-67
2021/12/01 12:27:37;;;;;;;25.17;3.30;;;;;;;;;;5050757;28;20053;-67
2021/12/01 12:30:09;;;;;;;21.50;4.00;;;;;;;;;;5044855;28;20044;-67
2021/12/01 12:32:35;;;;;;;22.35;3.33;;;;;;;;;;5050939;28;20041;-67
2021/12/01 12:35:03;;;;;;;29.55;3.38;;;;;;;;;;5051400;28;20515;-67
2021/12/01 12:37:31;;;;;;;24.33;3.15;;;;;;;;;;5041015;28;20056;-67
2021/12/01 12:39:57;;;;;;;21.10;2.60;;;;;;;;;;5046704;28;20087;-67
2021/12/01 12:42:24;;;;;;;18.05;2.50;;;;;;;;;;5051420;28;20049;-67
2021/12/01 12:44:51;;;;;;;16.38;2.42;;;;;;;;;;5048986;28;20043;-67
2021/12/01 12:47:22;;;;;;;12.30;2.40;;;;;;;;;;5046745;28;20038;-67
2021/12/01 12:49:50;;;;;;;16.95;2.08;;;;;;;;;;5040199;28;20434;-67
2021/12/01 12:52:25;;;;;;;18.92;2.75;;;;;;;;;;5049672;28;20492;-67
2021/12/01 12:54:59;;;;;;;13.90;2.15;;;;;;;;;;5049596;28;20040;-67
2021/12/01 12:57:46;;;;;;;12.20;1.98;;;;;;;;;;5046571;28;20159;-67
2021/12/01 13:00:25;;;;;;;13.55;1.92;;;;;;;;;;5042880;28;20120;-67
2021/12/01 13:02:53;;;;;;;9.75;2.22;;;;;;;;;;5049429;28;20120;-67
2021/12/01 13:05:38;;;;;;;20.60;2.85;;;;;;;;;;5034194;28;20407;-67
2021/12/01 13:08:23;;;;;;;11.73;2.17;;;;;;;;;;5050766;28;20037;-70
2021/12/01 13:10:49;;;;;;;10.27;1.58;;;;;;;;;;5044235;28;20029;-67
2021/12/01 13:13:18;;;;;;;15.18;2.25;;;;;;;;;;5048040;28;20041;-67
2021/12/01 13:15:44;;;;;;;15.73;2.70;;;;;;;;;;5050608;28;20041;-68
2021/12/01 13:18:10;;;;;;;10.43;2.05;;;;;;;;;;5053864;28;20121;-67
2021/12/01 13:20:41;;;;;;;16.27;1.90;;;;;;;;;;5058647;28;20040;-67
2021/12/01 13:23:16;;;;;;;10.23;1.65;;;;;;;;;;5047729;28;20049;-67
2021/12/01 13:25:53;;;;;;;14.60;1.92;;;;;;;;;;5049011;28;20136;-67
2021/12/01 13:28:27;;;;;;;14.25;2.05;;;;;;;;;;5052331;28;20037;-67
2021/12/01 13:31:04;;;;;;;9.05;1.67;;;;;;;;;;5054560;28;20044;-67
2021/12/01 13:33:30;;;;;;;5.82;1.08;;;;;;;;;;5054457;28;20037;-67
2021/12/01 13:35:56;;;;;;;6.53;1.65;;;;;;;;;;5054899;28;20047;-67
2021/12/01 13:38:35;;;;;;;11.88;2.20;;;;;;;;;;5053867;28;20456;-67
2021/12/01 13:41:08;;;;;;;4.93;1.27;;;;;;;;;;5053889;28;20669;-67
2021/12/01 13:43:35;;;;;;;12.68;1.67;;;;;;;;;;5041567;28;20029;-67
2021/12/01 13:46:02;;;;;;;8.65;1.40;;;;;;;;;;5054766;28;20048;-67
2021/12/01 13:48:29;;;;;;;12.38;1.83;;;;;;;;;;5053928;28;20041;-67
2021/12/01 13:51:06;;;;;;;6.72;1.30;;;;;;;;;;5053367;28;20039;-67
2021/12/01 13:53:32;;;;;;;8.70;1.58;;;;;;;;;;5057647;28;20038;-67
2021/12/01 13:55:59;;;;;;;13.20;1.92;;;;;;;;;;5062389;28;20037;-67
2021/12/01 13:58:25;;;;;;;12.98;1.77;;;;;;;;;;5057490;28;20490;-67
2021/12/01 14:00:53;;;;;;;12.32;1.63;;;;;;;;;;5053030;28;20076;-67
2021/12/01 14:03:21;;;;;;;11.10;2.35;;;;;;;;;;5053511;28;20040;-67
2021/12/01 14:05:50;;;;;;;13.32;1.73;;;;;;;;;;5057433;28;20087;-67
2021/12/01 14:08:28;;;;;;;11.88;1.95;;;;;;;;;;5057816;28;20082;-67
2021/12/01 14:11:00;;;;;;;12.60;1.83;;;;;;;;;;5050953;28;20047;-67
2021/12/01 14:13:28;;;;;;;8.73;2.50;;;;;;;;;;5052830;28;20037;-67
2021/12/01 14:15:55;;;;;;;10.05;1.45;;;;;;;;;;5052245;28;20051;-67
2021/12/01 14:18:22;;;;;;;7.80;1.13;;;;;;;;;;5052423;28;20545;-67
2021/12/01 14:21:08;;;;;;;8.73;1.30;;;;;;;;;;5050809;28;20041;-67
2021/12/01 14:23:34;;;;;;;17.10;2.10;;;;;;;;;;5051374;28;20053;-67
2021/12/01 14:26:00;;;;;;;11.73;1.25;;;;;;;;;;5052356;28;20055;-67
2021/12/01 14:28:26;;;;;;;8.02;1.45;;;;;;;;;;5052236;28;20892;-67
2021/12/01 14:30:52;;;;;;;7.50;1.45;;;;;;;;;;5052861;28;20037;-67
2021/12/01 14:33:19;;;;;;;13.35;2.00;;;;;;;;;;5053309;28;20095;-67
2021/12/01 14:35:45;;;;;;;10.65;1.88;;;;;;;;;;5053122;28;20041;-67
2021/12/01 14:38:14;;;;;;;13.32;1.45;;;;;;;;;;5035404;28;20550;-67
2021/12/01 14:40:47;;;;;;;12.70;2.38;;;;;;;;;;5052990;28;20452;-67
2021/12/01 14:43:13;;;;;;;16.83;1.80;;;;;;;;;;5053154;28;20037;-67
2021/12/01 14:45:40;;;;;;;14.32;1.70;;;;;;;;;;5052696;28;20452;-67
2021/12/01 14:48:11;;;;;;;18.85;4.22;;;;;;;;;;5032734;28;20542;-67